Time;durP1;ratioP1;P1;durP2;ratioP2;P2;SDS_P1;SDS_P2;PMS_P1;PMS_P2;Temp;Humidity;BMP_temperature;BMP_pressure;BME280_temperature;BME280_humidity;BME280_pressure;Samples;Min_cycle;Max_cycle;Signal;HPM_P1;HPM_P2
2021/03/19 00:00:26;;;;;;;25.27;15.82;;;3.60;87.00;;;;;;5115341;28;20379;-35
2021/03/19 00:02:53;;;;;;;23.13;14.52;;;3.60;87.00;;;;;;5115280;28;20023;-36
2021/03/19 00:05:21;;;;;;;23.80;17.17;;;3.60;86.90;;;;;;5115061;28;20020;-35
2021/03/19 00:07:52;;;;;;;20.42;14.77;;;3.60;87.00;;;;;;5115210;28;20024;-35
2021/03/19 00:10:23;;;;;;;26.98;16.27;;;3.50;87.00;;;;;;5115068;28;20020;-36
2021/03/19 00:12:50;;;;;;;24.35;16.38;;;3.50;86.90;;;;;;5114868;28;20103;-35
2021/03/19 00:15:17;;;;;;;30.00;17.27;;;3.40;87.20;;;;;;5115064;28;20060;-36
2021/03/19 00:17:43;;;;;;;22.90;16.77;;;3.40;87.40;;;;;;5114834;28;20047;-36
2021/03/19 00:20:10;;;;;;;27.83;17.77;;;3.30;87.30;;;;;;5114673;28;20031;-36
2021/03/19 00:22:37;;;;;;;24.23;15.95;;;3.30;87.70;;;;;;5114930;28;20038;-36
2021/03/19 00:25:04;;;;;;;23.70;16.48;;;3.30;87.60;;;;;;5114836;28;20084;-36
2021/03/19 00:27:30;;;;;;;22.80;16.42;;;3.30;87.60;;;;;;5114504;28;20394;-36
2021/03/19 00:29:56;;;;;;;25.27;16.17;;;3.20;87.50;;;;;;5114571;28;20031;-36
2021/03/19 00:32:21;;;;;;;24.38;16.25;;;3.20;87.70;;;;;;5114471;28;20519;-36
2021/03/19 00:34:47;;;;;;;22.75;15.57;;;3.10;87.50;;;;;;5114420;28;20463;-36
2021/03/19 00:37:13;;;;;;;18.90;13.38;;;3.20;87.40;;;;;;5114642;28;20112;-36
2021/03/19 00:39:39;;;;;;;19.10;14.13;;;3.00;87.50;;;;;;5114230;28;20039;-36
2021/03/19 00:42:06;;;;;;;19.00;14.32;;;3.00;87.70;;;;;;5114519;28;20103;-36
2021/03/19 00:44:32;;;;;;;27.95;15.60;;;3.00;87.40;;;;;;5112943;28;20084;-36
2021/03/19 00:46:58;;;;;;;21.38;13.88;;;3.00;87.40;;;;;;5112784;28;20075;-36
2021/03/19 00:49:24;;;;;;;26.83;14.30;;;2.90;87.70;;;;;;5114069;28;20035;-35
2021/03/19 00:51:50;;;;;;;20.88;14.27;;;3.00;87.50;;;;;;5114130;28;20044;-35
2021/03/19 00:54:15;;;;;;;22.70;14.50;;;2.90;87.50;;;;;;5114288;28;20055;-35
2021/03/19 00:56:41;;;;;;;26.48;14.18;;;2.80;87.60;;;;;;5114153;28;20032;-35
2021/03/19 00:59:07;;;;;;;19.25;12.40;;;2.80;87.60;;;;;;5113897;28;20411;-35
2021/03/19 01:01:36;;;;;;;17.85;11.93;;;2.80;87.20;;;;;;5113879;28;20487;-35
2021/03/19 01:04:03;;;;;;;20.70;11.77;;;2.80;86.90;;;;;;5113856;28;20070;-35
2021/03/19 01:06:29;;;;;;;15.75;11.23;;;2.70;87.00;;;;;;5113738;28;20073;-36
2021/03/19 01:08:55;;;;;;;17.90;11.43;;;2.80;86.90;;;;;;5113816;28;20521;-35
2021/03/19 01:11:20;;;;;;;17.75;11.35;;;2.80;86.70;;;;;;5113830;28;20024;-35
2021/03/19 01:13:46;;;;;;;14.73;10.43;;;2.80;86.90;;;;;;5112846;28;20038;-35
2021/03/19 01:16:12;;;;;;;15.95;10.85;;;2.80;86.90;;;;;;5113781;28;20047;-35
2021/03/19 01:18:38;;;;;;;16.00;10.07;;;2.90;86.40;;;;;;5113826;28;20399;-35
2021/03/19 01:21:05;;;;;;;12.85;9.27;;;2.90;86.10;;;;;;5114034;28;20414;-35
2021/03/19 01:23:30;;;;;;;14.82;10.65;;;2.90;85.90;;;;;;5114061;28;20027;-35
2021/03/19 01:25:57;;;;;;;18.58;10.20;;;2.80;86.40;;;;;;5113839;28;20046;-36
2021/03/19 01:28:24;;;;;;;15.27;10.02;;;2.90;86.00;;;;;;5112274;28;20023;-35
2021/03/19 01:30:50;;;;;;;14.25;8.80;;;2.90;85.50;;;;;;5116539;28;20023;-35
2021/03/19 01:33:17;;;;;;;15.35;8.90;;;2.80;85.60;;;;;;5117766;28;20024;-35
2021/03/19 01:35:43;;;;;;;17.40;9.88;;;2.80;85.90;;;;;;5117834;28;20020;-35
2021/03/19 01:38:10;;;;;;;11.07;8.50;;;2.90;85.70;;;;;;5117690;28;20026;-36
2021/03/19 01:40:43;;;;;;;17.55;9.90;;;2.90;85.70;;;;;;5116530;28;20020;-35
2021/03/19 01:43:17;;;;;;;11.35;9.45;;;2.90;85.50;;;;;;5117969;28;20055;-35
2021/03/19 01:46:03;;;;;;;15.10;9.95;;;2.80;85.70;;;;;;5117693;28;20024;-36
2021/03/19 01:49:07;;;;;;;16.95;10.35;;;2.80;85.80;;;;;;5116095;28;20122;-35
2021/03/19 01:52:10;;;;;;;18.88;10.50;;;2.80;85.70;;;;;;5117501;28;20381;-35
2021/03/19 01:55:13;;;;;;;14.52;10.07;;;2.60;86.40;;;;;;5117828;28;20459;-35
2021/03/19 01:58:16;;;;;;;15.30;10.60;;;2.50;86.70;;;;;;5117636;28;20065;-35
2021/03/19 02:01:18;;;;;;;19.17;10.02;;;2.40;86.70;;;;;;5117093;28;20110;-35
2021/03/19 02:04:21;;;;;;;12.95;9.52;;;2.50;86.40;;;;;;5117117;28;20090;-36
2021/03/19 02:07:24;;;;;;;13.77;10.38;;;2.40;85.70;;;;;;5116887;28;20547;-35
2021/03/19 02:10:28;;;;;;;16.38;10.52;;;2.40;85.90;;;;;;5116868;28;20032;-35
2021/03/19 02:13:31;;;;;;;14.30;9.75;;;2.50;85.50;;;;;;5116786;28;20416;-36
2021/03/19 02:16:33;;;;;;;15.10;9.82;;;2.40;85.80;;;;;;5116935;28;20020;-35
2021/03/19 02:19:36;;;;;;;18.75;9.32;;;2.40;85.70;;;;;;5116630;28;20019;-35
2021/03/19 02:22:39;;;;;;;16.40;11.57;;;2.30;85.40;;;;;;5116813;28;20519;-35
2021/03/19 02:25:42;;;;;;;29.60;11.73;;;2.30;85.20;;;;;;5116513;28;20062;-35
2021/03/19 02:28:59;;;;;;;14.95;10.27;;;2.20;85.40;;;;;;5116764;28;20032;-35
2021/03/19 02:31:57;;;;;;;14.77;11.05;;;2.20;85.50;;;;;;5081764;28;20035;-35
2021/03/19 02:34:27;;;;;;;22.58;12.98;;;2.20;85.40;;;;;;5116844;28;20020;-35
2021/03/19 02:36:54;;;;;;;18.23;9.73;;;2.10;85.80;;;;;;5115545;28;20409;-35
2021/03/19 02:39:19;;;;;;;16.52;9.77;;;2.10;85.60;;;;;;5116595;28;20023;-35
2021/03/19 02:41:45;;;;;;;18.73;8.57;;;2.10;85.60;;;;;;5116758;28;20122;-35
2021/03/19 02:44:10;;;;;;;14.43;10.27;;;2.10;85.50;;;;;;5116482;28;20020;-35
2021/03/19 02:46:36;;;;;;;13.48;8.30;;;2.00;85.50;;;;;;5116316;27;20095;-35
2021/03/19 02:49:02;;;;;;;17.17;9.55;;;2.00;85.40;;;;;;5115065;28;20028;-36
2021/03/19 02:51:28;;;;;;;21.35;10.13;;;1.90;85.40;;;;;;5116302;28;20036;-35
2021/03/19 02:53:54;;;;;;;15.45;10.43;;;2.00;85.30;;;;;;5115675;28;20375;-35
2021/03/19 02:56:19;;;;;;;18.10;11.00;;;2.00;85.20;;;;;;5116618;28;20136;-35
2021/03/19 02:58:45;;;;;;;17.63;10.65;;;2.00;85.30;;;;;;5116223;28;20024;-35
2021/03/19 03:01:11;;;;;;;17.73;11.20;;;2.10;85.30;;;;;;5116213;28;20031;-35
2021/03/19 03:03:36;;;;;;;19.77;11.85;;;2.10;85.10;;;;;;5116415;28;20472;-35
2021/03/19 03:06:03;;;;;;;15.18;10.10;;;2.10;84.80;;;;;;5116107;28;20024;-35
2021/03/19 03:08:30;;;;;;;22.50;10.75;;;2.10;85.10;;;;;;5114744;28;20028;-35
2021/03/19 03:10:57;;;;;;;9.02;6.95;;;2.10;84.90;;;;;;5115745;28;20032;-35
2021/03/19 03:13:23;;;;;;;16.08;9.40;;;2.20;84.80;;;;;;5116230;28;20027;-35
2021/03/19 03:15:49;;;;;;;17.02;9.02;;;2.20;84.80;;;;;;5116129;28;20019;-35
2021/03/19 03:18:15;;;;;;;22.17;10.30;;;2.20;84.70;;;;;;5116116;28;20020;-35
2021/03/19 03:20:50;;;;;;;15.32;10.18;;;2.30;84.60;;;;;;5115751;28;20498;-36
2021/03/19 03:23:20;;;;;;;17.02;9.50;;;2.20;84.90;;;;;;5116045;28;20425;-35
2021/03/19 03:25:45;;;;;;;15.20;9.80;;;2.20;84.50;;;;;;5115801;27;20153;-35
2021/03/19 03:28:12;;;;;;;15.25;10.45;;;2.10;84.50;;;;;;5115584;28;20106;-35
2021/03/19 03:30:42;;;;;;;15.93;11.23;;;2.20;84.60;;;;;;5115680;28;20163;-36
2021/03/19 03:33:09;;;;;;;21.65;10.93;;;2.10;84.40;;;;;;5115999;28;20019;-36
2021/03/19 03:35:35;;;;;;;12.25;7.50;;;2.20;84.20;;;;;;5115817;27;20027;-35
2021/03/19 03:38:04;;;;;;;21.23;9.73;;;2.20;83.90;;;;;;5115706;28;20028;-35
2021/03/19 03:40:37;;;;;;;12.45;9.38;;;2.10;84.30;;;;;;5114078;28;20027;-35
2021/03/19 03:43:04;;;;;;;17.50;9.70;;;2.00;84.40;;;;;;5114023;28;20033;-36
2021/03/19 03:45:29;;;;;;;13.60;9.25;;;1.90;84.40;;;;;;5115327;28;20077;-35
2021/03/19 03:47:55;;;;;;;18.15;10.63;;;1.90;84.20;;;;;;5113812;28;20056;-35
2021/03/19 03:50:24;;;;;;;17.35;10.00;;;1.90;84.20;;;;;;5115138;28;20102;-35
2021/03/19 03:52:49;;;;;;;18.55;10.18;;;1.80;84.40;;;;;;5114524;28;20392;-35
2021/03/19 03:55:15;;;;;;;27.00;11.95;;;1.70;84.70;;;;;;5115075;28;20058;-35
2021/03/19 03:57:41;;;;;;;16.77;9.68;;;1.60;84.90;;;;;;5115118;28;20020;-37
2021/03/19 04:00:11;;;;;;;22.17;10.48;;;1.70;84.70;;;;;;5114033;28;20035;-35
2021/03/19 04:02:37;;;;;;;17.43;9.27;;;1.60;84.50;;;;;;5115321;28;20042;-37
2021/03/19 04:05:04;;;;;;;19.40;10.50;;;1.50;84.40;;;;;;5114899;28;20261;-35
2021/03/19 04:07:30;;;;;;;14.45;8.80;;;1.50;84.70;;;;;;5114952;28;20455;-37
2021/03/19 04:09:56;;;;;;;15.77;9.93;;;1.50;84.30;;;;;;5114844;28;20093;-35
2021/03/19 04:12:22;;;;;;;18.35;10.45;;;1.50;84.30;;;;;;5115050;28;20019;-35
2021/03/19 04:14:47;;;;;;;16.98;10.18;;;1.40;84.30;;;;;;5114740;28;20483;-35
2021/03/19 04:17:31;;;;;;;15.40;7.97;;;1.50;84.00;;;;;;5114984;28;20108;-35
2021/03/19 04:19:57;;;;;;;19.00;9.77;;;1.40;83.70;;;;;;5115004;28;20035;-35
2021/03/19 04:22:24;;;;;;;20.60;8.85;;;1.40;83.90;;;;;;5114591;28;20150;-35
2021/03/19 04:24:50;;;;;;;15.57;9.00;;;1.30;84.10;;;;;;5114527;28;20384;-35
2021/03/19 04:27:21;;;;;;;19.05;9.48;;;1.40;83.90;;;;;;5114657;28;20035;-35
2021/03/19 04:29:47;;;;;;;14.23;9.63;;;1.30;83.90;;;;;;5114391;28;20031;-35
2021/03/19 04:32:14;;;;;;;17.63;9.93;;;1.30;83.70;;;;;;5114362;28;20343;-35
2021/03/19 04:34:39;;;;;;;13.13;8.85;;;1.30;83.80;;;;;;5113135;28;20065;-35
2021/03/19 04:37:06;;;;;;;16.90;8.57;;;1.30;83.90;;;;;;5114772;28;20031;-36
2021/03/19 04:39:33;;;;;;;15.25;8.23;;;1.30;83.80;;;;;;5114418;28;20024;-35
2021/03/19 04:42:02;;;;;;;10.48;7.88;;;1.30;83.40;;;;;;5114469;28;20371;-35
2021/03/19 04:44:33;;;;;;;14.40;9.00;;;1.30;83.20;;;;;;5114406;28;20384;-35
2021/03/19 04:46:59;;;;;;;14.68;8.43;;;1.30;83.30;;;;;;5113965;28;20081;-36
2021/03/19 04:49:24;;;;;;;12.57;7.65;;;1.30;83.00;;;;;;5114290;28;20437;-35
2021/03/19 04:51:50;;;;;;;13.95;8.50;;;1.30;82.80;;;;;;5112662;28;20024;-35
2021/03/19 04:54:16;;;;;;;11.57;7.88;;;1.20;83.10;;;;;;5113932;28;20012;-35
2021/03/19 04:56:42;;;;;;;12.60;7.90;;;1.10;83.10;;;;;;5114414;28;20381;-35
2021/03/19 04:59:09;;;;;;;15.98;9.48;;;1.20;83.10;;;;;;5114428;28;20482;-37
2021/03/19 05:01:56;;;;;;;20.40;7.35;;;1.10;83.00;;;;;;5113834;28;20059;-35
2021/03/19 05:04:22;;;;;;;15.88;8.73;;;1.20;83.00;;;;;;5113314;28;20024;-35
2021/03/19 05:06:50;;;;;;;12.18;6.57;;;1.10;83.00;;;;;;5112920;28;20031;-35
2021/03/19 05:09:17;;;;;;;16.25;7.13;;;1.10;82.80;;;;;;5114147;28;20024;-35
2021/03/19 05:11:42;;;;;;;10.77;7.20;;;1.10;82.70;;;;;;5114587;28;20467;-35
2021/03/19 05:14:08;;;;;;;11.70;7.07;;;1.10;82.40;;;;;;5113756;28;20020;-35
2021/03/19 05:16:34;;;;;;;11.32;8.00;;;1.10;82.40;;;;;;5113924;28;20372;-35
2021/03/19 05:18:59;;;;;;;13.15;7.90;;;1.10;82.50;;;;;;5113947;28;20027;-35
2021/03/19 05:21:25;;;;;;;9.13;6.72;;;1.00;82.50;;;;;;5113663;28;20026;-35
2021/03/19 05:23:51;;;;;;;9.85;6.57;;;1.00;82.30;;;;;;5113919;28;20506;-36
2021/03/19 05:26:17;;;;;;;14.30;8.15;;;0.90;82.50;;;;;;5113391;28;20169;-35
2021/03/19 05:28:42;;;;;;;12.25;7.85;;;1.00;82.20;;;;;;5113586;28;20024;-35
2021/03/19 05:31:08;;;;;;;12.63;7.40;;;0.90;82.60;;;;;;5113764;28;20051;-36
2021/03/19 05:33:44;;;;;;;9.55;6.38;;;1.00;82.40;;;;;;5113777;28;20034;-35
2021/03/19 05:36:11;;;;;;;13.05;7.18;;;0.90;82.60;;;;;;5114332;28;20371;-35
2021/03/19 05:38:36;;;;;;;8.43;6.38;;;0.90;82.00;;;;;;5113406;28;20023;-35
2021/03/19 05:41:04;;;;;;;11.70;7.03;;;0.80;82.10;;;;;;5113416;28;20103;-36
2021/03/19 05:43:34;;;;;;;10.45;7.22;;;0.90;82.00;;;;;;5113427;28;20051;-36
2021/03/19 05:46:06;;;;;;;12.97;8.90;;;1.00;81.70;;;;;;5113843;28;20100;-36
2021/03/19 05:49:01;;;;;;;12.88;7.10;;;0.90;81.90;;;;;;5113187;28;20048;-36
2021/03/19 05:51:40;;;;;;;12.65;6.78;;;0.90;81.90;;;;;;5108469;28;20147;-36
2021/03/19 05:54:12;;;;;;;10.82;6.63;;;0.90;81.70;;;;;;5113696;28;20459;-36
2021/03/19 05:56:39;;;;;;;11.27;7.20;;;0.90;81.60;;;;;;5113196;28;20024;-36
2021/03/19 05:59:05;;;;;;;11.57;7.22;;;1.00;81.50;;;;;;5112021;28;20020;-36
2021/03/19 06:01:31;;;;;;;10.70;6.65;;;0.90;81.40;;;;;;5113154;28;20052;-35
2021/03/19 06:04:00;;;;;;;8.95;6.38;;;0.90;81.40;;;;;;5113990;28;20517;-36
2021/03/19 06:06:46;;;;;;;10.45;6.30;;;0.90;81.50;;;;;;5111987;28;20058;-36
2021/03/19 06:09:31;;;;;;;10.25;6.32;;;1.00;81.20;;;;;;5113733;28;20096;-36
2021/03/19 06:12:06;;;;;;;12.23;6.72;;;1.00;80.90;;;;;;5113816;28;20115;-36
2021/03/19 06:14:49;;;;;;;9.38;6.18;;;1.00;81.00;;;;;;5113937;28;20348;-35
2021/03/19 06:17:21;;;;;;;11.55;7.53;;;1.10;80.70;;;;;;5116875;28;20022;-35
2021/03/19 06:20:06;;;;;;;10.65;6.95;;;1.10;80.70;;;;;;5116791;28;20024;-35
2021/03/19 06:23:00;;;;;;;8.20;6.03;;;1.10;80.50;;;;;;5117194;28;20023;-37
2021/03/19 06:25:34;;;;;;;10.95;6.35;;;1.10;80.40;;;;;;5117238;28;20383;-35
2021/03/19 06:28:03;;;;;;;16.90;7.70;;;1.20;80.10;;;;;;5116913;28;20095;-35
2021/03/19 06:30:41;;;;;;;11.15;6.65;;;1.10;80.70;;;;;;5116932;28;20024;-35
2021/03/19 06:33:12;;;;;;;7.22;6.38;;;1.20;80.00;;;;;;5116709;28;20486;-35
2021/03/19 06:35:48;;;;;;;9.55;6.00;;;1.20;80.00;;;;;;5116568;28;20058;-35
2021/03/19 06:38:37;;;;;;;11.68;5.93;;;1.20;79.70;;;;;;5116711;28;20455;-36
2021/03/19 06:41:36;;;;;;;7.47;5.07;;;1.30;79.40;;;;;;5117143;28;20019;-36
2021/03/19 06:44:13;;;;;;;11.13;5.78;;;1.30;79.60;;;;;;5093579;28;20055;-35
2021/03/19 06:47:01;;;;;;;10.80;6.70;;;1.30;79.20;;;;;;5116116;28;20368;-36
2021/03/19 06:49:29;;;;;;;14.32;6.20;;;1.40;79.00;;;;;;5116304;28;20044;-36
2021/03/19 06:52:23;;;;;;;8.82;4.95;;;1.50;79.10;;;;;;5116223;28;20028;-36
2021/03/19 06:54:52;;;;;;;7.95;5.90;;;1.50;78.40;;;;;;5116230;28;20058;-36
2021/03/19 06:57:19;;;;;;;9.00;6.22;;;1.60;78.40;;;;;;5116766;28;20027;-36
2021/03/19 06:59:48;;;;;;;6.43;5.05;;;1.70;77.80;;;;;;5116413;28;20058;-36
2021/03/19 07:02:52;;;;;;;9.63;5.93;;;1.80;77.60;;;;;;5116188;28;20379;-36
2021/03/19 07:05:29;;;;;;;9.98;5.75;;;1.80;77.40;;;;;;5100425;28;20032;-36
2021/03/19 07:08:10;;;;;;;7.95;5.47;;;1.90;77.10;;;;;;5115866;28;20444;-36
2021/03/19 07:10:44;;;;;;;8.23;4.18;;;1.90;77.50;;;;;;5116090;28;20031;-36
2021/03/19 07:13:25;;;;;;;14.43;5.95;;;2.10;76.30;;;;;;5116583;28;20049;-36
2021/03/19 07:15:54;;;;;;;;;;;2.10;77.00;;;;;;5116830;28;20409;-36
2021/03/19 07:18:44;;;;;;;13.73;6.22;;;2.20;76.90;;;;;;5115999;28;19943;-36
2021/03/19 07:21:34;;;;;;;8.88;5.68;;;2.30;76.70;;;;;;5115678;28;20032;-36
2021/03/19 07:24:25;;;;;;;6.67;4.80;;;2.30;76.10;;;;;;5115853;28;20031;-36
2021/03/19 07:27:02;;;;;;;9.82;4.97;;;2.30;75.60;;;;;;5114602;27;20027;-36
2021/03/19 07:29:59;;;;;;;7.55;5.63;;;2.40;75.10;;;;;;5115311;28;20472;-36
2021/03/19 07:33:10;;;;;;;6.40;5.25;;;2.50;75.20;;;;;;5116060;28;20471;-37
2021/03/19 07:35:51;;;;;;;10.40;5.22;;;2.60;74.70;;;;;;5064932;28;20053;-36
2021/03/19 07:38:37;;;;;;;10.73;5.22;;;2.70;74.00;;;;;;5115594;28;20015;-37
2021/03/19 07:41:28;;;;;;;6.93;4.38;;;2.80;73.40;;;;;;5115472;28;20027;-37
2021/03/19 07:44:10;;;;;;;8.38;4.95;;;2.80;73.90;;;;;;5113831;28;20031;-37
2021/03/19 07:47:09;;;;;;;7.63;4.25;;;3.00;72.80;;;;;;5114938;28;20024;-37
2021/03/19 07:49:44;;;;;;;6.55;4.15;;;3.10;72.60;;;;;;5115251;28;20024;-35
2021/03/19 07:52:10;;;;;;;7.47;4.90;;;3.00;72.90;;;;;;5114352;28;20068;-36
2021/03/19 07:54:50;;;;;;;7.35;4.63;;;3.20;72.70;;;;;;5114232;28;20019;-36
2021/03/19 07:57:26;;;;;;;6.72;3.97;;;3.60;71.60;;;;;;5114722;28;20099;-36
2021/03/19 08:00:06;;;;;;;5.80;3.92;;;3.60;70.50;;;;;;5114913;28;20024;-36
2021/03/19 08:02:51;;;;;;;9.82;3.92;;;3.60;70.90;;;;;;5114541;28;20027;-37
2021/03/19 08:05:25;;;;;;;7.18;4.45;;;3.50;70.50;;;;;;5093058;27;20383;-40
2021/03/19 08:08:06;;;;;;;8.52;4.60;;;3.70;70.00;;;;;;5114461;28;20016;-37
2021/03/19 08:10:32;;;;;;;;;;;3.90;69.50;;;;;;5114683;28;20030;-37
2021/03/19 08:13:15;;;;;;;8.60;4.40;;;4.00;69.40;;;;;;5114129;28;19904;-37
2021/03/19 08:16:02;;;;;;;6.18;4.68;;;4.00;69.40;;;;;;5115191;28;20024;-36
2021/03/19 08:18:40;;;;;;;8.32;3.88;;;4.30;68.10;;;;;;5114699;28;20055;-38
2021/03/19 08:21:18;;;;;;;3.10;2.38;;;4.20;68.20;;;;;;5114666;28;20036;-38
2021/03/19 08:23:58;;;;;;;7.57;2.83;;;4.30;67.10;;;;;;5114613;28;20027;-37
2021/03/19 08:26:36;;;;;;;4.07;2.88;;;4.50;66.30;;;;;;5113741;28;20038;-36
2021/03/19 08:29:27;;;;;;;3.30;2.30;;;4.80;64.60;;;;;;5113648;28;20435;-37
2021/03/19 08:32:21;;;;;;;3.60;2.45;;;5.00;63.50;;;;;;5114248;28;20499;-38
2021/03/19 08:34:58;;;;;;;2.78;2.35;;;5.00;63.10;;;;;;5113875;28;20451;-38
2021/03/19 08:37:35;;;;;;;4.18;2.72;;;5.20;63.10;;;;;;5114041;28;20019;-36
2021/03/19 08:40:05;;;;;;;5.22;2.70;;;6.00;61.00;;;;;;5113557;28;20062;-37
2021/03/19 08:42:34;;;;;;;4.67;2.73;;;6.40;58.90;;;;;;5113904;28;20059;-36
2021/03/19 08:45:03;;;;;;;8.90;3.20;;;6.20;58.50;;;;;;5113510;28;20051;-37
2021/03/19 08:47:40;;;;;;;9.43;4.13;;;6.20;58.70;;;;;;5113820;28;20096;-37
2021/03/19 08:50:35;;;;;;;6.28;1.88;;;6.40;58.30;;;;;;5113831;28;20032;-37
2021/03/19 08:53:08;;;;;;;4.32;2.65;;;6.40;56.00;;;;;;5113723;28;20015;-36
2021/03/19 08:55:39;;;;;;;5.53;2.95;;;5.90;58.20;;;;;;5113553;28;20103;-36
2021/03/19 08:58:29;;;;;;;2.92;2.33;;;6.00;57.70;;;;;;5113867;28;20058;-37
2021/03/19 09:01:03;;;;;;;2.63;2.20;;;6.40;57.00;;;;;;5113364;28;20446;-36
2021/03/19 09:03:37;;;;;;;5.50;2.63;;;6.80;55.10;;;;;;5113369;28;20148;-37
2021/03/19 09:06:06;;;;;;;7.18;3.30;;;7.10;53.80;;;;;;5113219;28;20102;-36
2021/03/19 09:08:55;;;;;;;4.13;3.13;;;7.00;55.50;;;;;;5113734;28;20028;-37
2021/03/19 09:11:44;;;;;;;4.03;2.53;;;7.30;53.30;;;;;;5106397;28;20035;-37
2021/03/19 09:14:10;;;;;;;3.45;2.90;;;7.20;53.30;;;;;;5113493;28;20420;-37
2021/03/19 09:16:56;;;;;;;4.40;2.25;;;6.80;55.20;;;;;;5113832;28;20020;-36
2021/03/19 09:19:43;;;;;;;6.10;2.60;;;6.80;54.70;;;;;;5114010;28;20024;-37
2021/03/19 09:22:21;;;;;;;5.25;3.65;;;6.40;56.10;;;;;;5113095;28;20103;-36
2021/03/19 09:25:08;;;;;;;4.90;3.33;;;7.10;54.10;;;;;;5113066;28;20062;-36
2021/03/19 09:27:40;;;;;;;5.53;3.03;;;6.90;53.80;;;;;;5113067;28;20015;-36
2021/03/19 09:30:09;;;;;;;3.53;2.67;;;6.70;54.40;;;;;;5112958;28;20027;-37
2021/03/19 09:32:41;;;;;;;9.65;3.17;;;7.20;53.20;;;;;;5113009;28;20016;-36
2021/03/19 09:35:42;;;;;;;3.90;2.88;;;7.40;52.20;;;;;;5113113;28;20023;-36
2021/03/19 09:38:40;;;;;;;3.85;2.45;;;7.20;51.80;;;;;;5113107;28;20051;-36
2021/03/19 09:41:08;;;;;;;2.95;2.17;;;7.00;51.90;;;;;;5113049;28;20078;-40
2021/03/19 09:43:50;;;;;;;5.05;2.90;;;7.10;52.00;;;;;;5112727;28;20078;-36
2021/03/19 09:46:18;;;;;;;5.82;2.83;;;7.40;50.40;;;;;;5112507;28;20475;-36
2021/03/19 09:48:56;;;;;;;6.63;3.20;;;7.60;51.40;;;;;;5113063;28;20138;-35
2021/03/19 09:51:45;;;;;;;6.10;2.72;;;7.30;50.80;;;;;;5114999;28;20520;-36
2021/03/19 09:54:28;;;;;;;6.03;2.65;;;7.30;51.10;;;;;;5116927;28;20020;-36
2021/03/19 09:57:00;;;;;;;10.52;2.80;;;7.50;50.00;;;;;;5116779;28;20491;-35
2021/03/19 09:59:28;;;;;;;3.72;2.65;;;7.30;50.80;;;;;;5117409;28;20042;-36
2021/03/19 10:01:54;;;;;;;5.05;3.20;;;7.40;50.10;;;;;;5115231;28;20047;-36
2021/03/19 10:04:47;;;;;;;9.88;2.60;;;7.40;50.30;;;;;;5116787;28;20028;-37
2021/03/19 10:07:15;;;;;;;4.40;2.75;;;7.70;50.00;;;;;;5113367;28;20031;-38
2021/03/19 10:09:59;;;;;;;4.22;3.10;;;7.30;50.90;;;;;;5117686;28;20443;-37
2021/03/19 10:12:27;;;;;;;5.43;2.58;;;7.00;51.90;;;;;;5116727;28;20020;-36
2021/03/19 10:14:56;;;;;;;5.18;2.08;;;7.20;51.20;;;;;;5116434;28;20486;-37
2021/03/19 10:17:31;;;;;;;4.60;1.92;;;7.60;48.60;;;;;;5116357;28;20019;-36
2021/03/19 10:20:11;;;;;;;4.18;1.98;;;7.50;48.10;;;;;;5116548;28;20035;-36
2021/03/19 10:22:52;;;;;;;4.60;2.20;;;8.00;48.20;;;;;;5116737;28;20486;-37
2021/03/19 10:25:31;;;;;;;5.47;2.60;;;7.80;49.00;;;;;;5116331;27;20171;-37
2021/03/19 10:28:26;;;;;;;3.42;2.15;;;8.50;45.80;;;;;;5116345;28;20024;-36
2021/03/19 10:31:04;;;;;;;6.35;2.40;;;8.60;46.00;;;;;;5110818;28;20039;-37
2021/03/19 10:33:49;;;;;;;5.35;1.75;;;8.50;44.40;;;;;;5116428;28;20020;-37
2021/03/19 10:36:19;;;;;;;4.75;2.25;;;8.20;46.40;;;;;;5116272;28;20103;-36
2021/03/19 10:38:58;;;;;;;4.63;1.97;;;8.50;44.40;;;;;;5116338;28;20353;-37
2021/03/19 10:41:42;;;;;;;3.30;2.33;;;8.00;46.90;;;;;;5116443;28;20028;-37
2021/03/19 10:44:35;;;;;;;6.93;2.22;;;8.70;45.10;;;;;;5116289;28;20028;-37
2021/03/19 10:47:16;;;;;;;3.00;1.60;;;9.50;43.20;;;;;;5115898;28;20391;-37
2021/03/19 10:50:00;;;;;;;2.80;1.42;;;9.30;42.50;;;;;;5116250;28;20077;-37
2021/03/19 10:52:34;;;;;;;1.73;1.30;;;9.20;41.90;;;;;;5115894;28;20031;-37
2021/03/19 10:55:06;;;;;;;2.78;1.75;;;9.60;42.40;;;;;;5116491;28;20062;-37
2021/03/19 10:57:35;;;;;;;2.50;1.33;;;9.90;38.40;;;;;;5116008;28;20490;-37
2021/03/19 11:00:20;;;;;;;2.85;1.33;;;8.80;41.20;;;;;;5114623;28;20026;-36
2021/03/19 11:02:58;;;;;;;4.32;1.95;;;8.60;41.80;;;;;;5114798;28;20440;-37
2021/03/19 11:05:24;;;;;;;2.97;1.30;;;8.30;43.50;;;;;;5098477;28;20031;-37
2021/03/19 11:07:50;;;;;;;1.85;1.02;;;9.60;40.40;;;;;;5115756;28;20356;-37
2021/03/19 11:10:19;;;;;;;3.13;1.73;;;10.40;37.90;;;;;;5114215;28;20035;-36
2021/03/19 11:12:52;;;;;;;2.05;1.45;;;9.90;38.40;;;;;;5115492;28;20135;-36
2021/03/19 11:15:29;;;;;;;2.45;1.30;;;9.70;39.70;;;;;;5115310;28;20019;-37
2021/03/19 11:18:23;;;;;;;3.00;1.17;;;9.20;40.40;;;;;;5115955;28;20499;-38
2021/03/19 11:20:53;;;;;;;2.88;1.48;;;9.30;38.60;;;;;;5114984;28;20061;-36
2021/03/19 11:23:24;;;;;;;2.30;1.25;;;9.50;38.60;;;;;;5115743;28;20077;-36
2021/03/19 11:25:52;;;;;;;1.85;1.50;;;9.50;39.40;;;;;;5115239;28;20032;-38
2021/03/19 11:28:27;;;;;;;4.72;1.63;;;10.00;38.40;;;;;;5114181;28;20051;-36
2021/03/19 11:30:52;;;;;;;1.42;0.85;;;10.40;36.30;;;;;;5115523;28;20466;-36
2021/03/19 11:33:19;;;;;;;2.10;1.10;;;10.60;35.40;;;;;;5115117;28;20051;-36
2021/03/19 11:36:10;;;;;;;2.80;1.15;;;10.20;36.50;;;;;;5115542;28;20061;-37
2021/03/19 11:38:39;;;;;;;4.30;1.02;;;9.50;39.00;;;;;;5114938;28;20019;-37
2021/03/19 11:41:34;;;;;;;4.05;1.75;;;10.20;37.70;;;;;;5115474;28;20035;-37
2021/03/19 11:44:00;;;;;;;0.77;0.77;;;10.80;35.90;;;;;;5114440;28;20160;-37
2021/03/19 11:46:27;;;;;;;2.58;1.08;;;9.80;37.50;;;;;;5115482;28;20099;-36
2021/03/19 11:48:53;;;;;;;3.10;0.90;;;8.70;39.00;;;;;;5115674;28;20475;-37
2021/03/19 11:51:31;;;;;;;1.35;0.95;;;8.50;39.60;;;;;;5114055;28;20031;-36
2021/03/19 11:53:58;;;;;;;1.33;0.95;;;9.00;39.20;;;;;;5114624;28;20387;-37
2021/03/19 11:56:24;;;;;;;1.38;0.85;;;9.80;38.40;;;;;;5113173;28;20464;-37
2021/03/19 11:58:50;;;;;;;1.17;0.90;;;10.50;34.70;;;;;;5114880;28;20043;-38
2021/03/19 12:01:17;;;;;;;1.10;1.02;;;9.80;34.60;;;;;;5115014;28;20498;-38
2021/03/19 12:03:48;;;;;;;0.63;0.63;;;9.80;35.80;;;;;;5114685;28;20019;-37
2021/03/19 12:06:16;;;;;;;2.58;0.90;;;9.10;37.00;;;;;;5115298;28;20097;-36
2021/03/19 12:08:44;;;;;;;1.83;0.75;;;9.30;37.30;;;;;;5115466;28;20019;-36
2021/03/19 12:11:20;;;;;;;3.03;1.20;;;8.70;39.00;;;;;;5114965;28;20024;-37
2021/03/19 12:13:46;;;;;;;3.25;0.80;;;9.10;37.80;;;;;;5114327;28;20463;-37
2021/03/19 12:16:12;;;;;;;1.00;0.80;;;8.80;38.20;;;;;;5114736;28;20360;-37
2021/03/19 12:18:37;;;;;;;1.02;0.65;;;8.80;37.10;;;;;;5115165;28;20071;-38
2021/03/19 12:21:03;;;;;;;2.10;1.10;;;8.10;38.30;;;;;;5114809;28;20031;-37
2021/03/19 12:23:29;;;;;;;1.70;1.17;;;8.00;38.90;;;;;;5114638;28;20032;-37
2021/03/19 12:25:54;;;;;;;1.70;1.00;;;9.00;37.30;;;;;;5113114;28;20027;-37
2021/03/19 12:28:22;;;;;;;3.03;1.10;;;9.80;35.50;;;;;;5114202;28;20329;-37
2021/03/19 12:30:49;;;;;;;1.38;0.90;;;10.00;33.40;;;;;;5113895;28;20042;-36
2021/03/19 12:33:16;;;;;;;0.98;0.57;;;9.80;33.80;;;;;;5113908;28;20102;-35
2021/03/19 12:35:42;;;;;;;0.75;0.60;;;9.70;34.20;;;;;;5112938;28;20106;-36
2021/03/19 12:38:10;;;;;;;3.67;1.23;;;8.80;36.00;;;;;;5114216;28;20080;-36
2021/03/19 12:40:36;;;;;;;3.58;0.90;;;8.50;37.30;;;;;;5114398;28;20440;-37
2021/03/19 12:43:04;;;;;;;1.38;0.73;;;8.70;37.40;;;;;;5114016;28;20031;-37
2021/03/19 12:45:31;;;;;;;1.65;1.33;;;8.70;36.20;;;;;;5112585;28;20038;-36
2021/03/19 12:47:57;;;;;;;1.00;0.60;;;8.80;38.10;;;;;;5113694;28;20384;-36
2021/03/19 12:50:25;;;;;;;1.67;1.10;;;8.80;37.10;;;;;;5113944;28;20020;-37
2021/03/19 12:52:52;;;;;;;2.17;1.23;;;8.50;37.50;;;;;;5114491;28;20399;-37
2021/03/19 12:55:18;;;;;;;2.60;1.13;;;8.60;36.50;;;;;;5113993;28;20020;-37
2021/03/19 12:57:44;;;;;;;1.83;1.23;;;8.70;36.90;;;;;;5114061;28;20486;-37
2021/03/19 13:00:16;;;;;;;1.58;0.90;;;8.80;36.10;;;;;;5113769;28;20012;-37
2021/03/19 13:02:42;;;;;;;1.33;1.05;;;8.80;37.60;;;;;;5114059;28;20482;-36
2021/03/19 13:05:08;;;;;;;1.88;0.88;;;9.10;35.90;;;;;;5112288;28;20115;-37
2021/03/19 13:07:33;;;;;;;2.30;1.17;;;8.80;36.20;;;;;;5113683;28;20027;-36
2021/03/19 13:09:59;;;;;;;1.13;1.00;;;8.40;37.90;;;;;;5113275;28;20019;-36
2021/03/19 13:12:25;;;;;;;1.08;0.73;;;8.20;38.60;;;;;;5113332;28;20030;-38
2021/03/19 13:14:51;;;;;;;1.77;1.00;;;8.10;38.40;;;;;;5113584;28;20522;-39
2021/03/19 13:17:16;;;;;;;1.00;0.95;;;8.30;37.20;;;;;;5114129;28;20027;-39
2021/03/19 13:19:42;;;;;;;0.80;0.70;;;8.50;37.10;;;;;;5113330;28;20044;-38
2021/03/19 13:22:08;;;;;;;4.20;0.90;;;8.60;36.10;;;;;;5113246;28;20054;-37
2021/03/19 13:24:33;;;;;;;0.73;0.73;;;8.70;36.30;;;;;;5114221;28;20434;-36